aviador You're here:

KARA Decoded Metar

LOUISIANA in LA, USA
Report Time2017-07-26 21:53:00
UTC Time2017-07-26 22:39:18
Flight Rules vfr VFR
Wind220° at 06 kt
W.Decomp.*RWY 16: 3.3 kt HW 5.0 kt RCW
W.Rank220° ranks 25
Current wind is below 220° avg. (6.6)
Visibility9999 m
Phenomena:Vicinity thunderstorm
Clouds:N/A
Expected CloudBase > 4,000 ft AGL from Temp-Dew spread
CeilingNone
Temp33°C (ISA +18)
Dew Point23°C (56% RH)
Heat Index38.1°C
QNH1018 hPa
Density Alt2,323 ft
Elevation59 ft
Report Wrong Elevation
Raw Report
KARA 262153Z 22006KT 10SM VCTS CLR 33/23 A3006 RMK AO2 SLP179
T03330233=

Extra information for KARA:More info

Metar Taf Metar & Taf Last 4 Metars F.Rules Stats Wind Profile Meteogram Temp Stats Airport Information Weather charts Add Link Nearby VenuesMetar ALERT Operation Metar Decoded Social comments

AIRNAV info for KARA